Time;durP1;ratioP1;P1;durP2;ratioP2;P2;SDS_P1;SDS_P2;PMS_P1;PMS_P2;Temp;Humidity;BMP_temperature;BMP_pressure;BME280_temperature;BME280_humidity;BME280_pressure;Samples;Min_cycle;Max_cycle;Signal;HPM_P1;HPM_P2
2021/09/05 00:01:39;;;;;;;7.03;5.57;;;14.60;74.10;;;;;;4998640;28;20120;-69
2021/09/05 00:04:05;;;;;;;6.38;5.50;;;14.60;74.10;;;;;;4996345;28;20385;-68
2021/09/05 00:06:32;;;;;;;6.00;5.40;;;14.50;74.00;;;;;;4999047;28;20041;-67
2021/09/05 00:08:57;;;;;;;6.90;5.78;;;14.50;74.20;;;;;;4998851;28;20456;-70
2021/09/05 00:11:23;;;;;;;6.80;5.72;;;14.50;74.40;;;;;;4998801;28;20065;-70
2021/09/05 00:13:49;;;;;;;5.97;5.05;;;14.40;74.60;;;;;;4999779;28;20509;-68
2021/09/05 00:16:15;;;;;;;6.68;5.32;;;14.40;75.60;;;;;;4998969;28;20046;-68
2021/09/05 00:18:40;;;;;;;6.20;5.35;;;14.40;74.90;;;;;;4998341;28;20049;-69
2021/09/05 00:21:06;;;;;;;10.07;5.65;;;14.40;74.90;;;;;;4999002;28;20035;-69
2021/09/05 00:23:32;;;;;;;8.25;5.25;;;14.40;74.90;;;;;;4998857;28;20505;-68
2021/09/05 00:25:57;;;;;;;6.13;5.50;;;14.40;74.80;;;;;;4999292;28;20053;-69
2021/09/05 00:28:23;;;;;;;7.05;5.70;;;14.30;74.70;;;;;;4998220;28;20036;-70
2021/09/05 00:30:48;;;;;;;6.03;4.95;;;14.30;74.80;;;;;;5000868;28;20504;-69
2021/09/05 00:33:14;;;;;;;9.30;5.40;;;14.30;74.80;;;;;;4998506;28;20037;-70
2021/09/05 00:35:40;;;;;;;5.85;5.22;;;14.20;74.90;;;;;;4999504;28;20128;-68
2021/09/05 00:38:05;;;;;;;7.30;5.20;;;14.20;75.00;;;;;;4998821;28;20109;-69
2021/09/05 00:40:31;;;;;;;5.68;4.95;;;14.20;75.10;;;;;;4999467;28;20504;-69
2021/09/05 00:42:57;;;;;;;5.90;5.30;;;14.20;75.10;;;;;;5000061;28;20578;-70
2021/09/05 00:45:23;;;;;;;5.82;4.93;;;14.20;75.10;;;;;;4999008;28;20030;-68
2021/09/05 00:47:48;;;;;;;8.23;5.18;;;14.20;75.10;;;;;;4998093;28;20030;-70
2021/09/05 00:50:14;;;;;;;5.70;5.10;;;14.20;74.90;;;;;;4997783;28;20038;-70
2021/09/05 00:52:40;;;;;;;6.55;5.10;;;14.20;75.00;;;;;;4997321;28;20048;-68
2021/09/05 00:55:08;;;;;;;7.93;5.15;;;14.10;75.00;;;;;;4997359;28;20658;-67
2021/09/05 00:57:34;;;;;;;6.70;5.10;;;14.10;75.00;;;;;;4999739;28;20421;-68
2021/09/05 00:59:59;;;;;;;6.18;4.85;;;14.10;74.90;;;;;;4997480;28;20073;-69
2021/09/05 01:02:25;;;;;;;8.52;4.82;;;14.10;74.80;;;;;;4997680;28;20556;-69
2021/09/05 01:04:51;;;;;;;9.27;5.65;;;14.10;74.90;;;;;;4997393;28;20030;-68
2021/09/05 01:07:16;;;;;;;6.45;5.45;;;14.10;75.00;;;;;;4999866;28;20042;-69
2021/09/05 01:09:42;;;;;;;6.53;5.53;;;14.00;75.10;;;;;;5000073;28;20070;-68
2021/09/05 01:12:09;;;;;;;6.88;5.05;;;14.00;75.20;;;;;;4996861;28;20484;-69
2021/09/05 01:14:34;;;;;;;9.07;5.20;;;13.90;75.20;;;;;;4997166;28;20081;-67
2021/09/05 01:17:00;;;;;;;7.57;4.97;;;13.90;75.40;;;;;;4994914;28;20061;-69
2021/09/05 01:19:26;;;;;;;6.88;5.55;;;13.90;75.50;;;;;;4998038;28;20037;-70
2021/09/05 01:21:52;;;;;;;7.03;5.80;;;13.80;75.50;;;;;;5001615;28;20398;-69
2021/09/05 01:24:20;;;;;;;7.63;5.57;;;13.80;75.60;;;;;;5001286;28;20038;-68
2021/09/05 01:26:49;;;;;;;6.05;4.93;;;13.80;75.80;;;;;;4998516;28;20030;-68
2021/09/05 01:29:15;;;;;;;6.78;5.20;;;13.80;75.90;;;;;;5000064;28;20037;-69
2021/09/05 01:31:46;;;;;;;5.68;5.00;;;13.80;75.80;;;;;;4997876;28;20039;-67
2021/09/05 01:34:15;;;;;;;6.18;5.25;;;13.80;75.80;;;;;;4999140;28;20096;-69
2021/09/05 01:36:42;;;;;;;6.10;4.70;;;13.80;75.80;;;;;;4999316;28;20045;-68
2021/09/05 01:39:10;;;;;;;6.63;5.05;;;13.80;75.70;;;;;;4998480;28;20030;-70
2021/09/05 01:41:36;;;;;;;6.95;5.10;;;13.80;75.80;;;;;;4999013;28;20527;-69
2021/09/05 01:44:04;;;;;;;6.22;5.07;;;13.80;75.80;;;;;;5000922;28;20049;-68
2021/09/05 01:46:30;;;;;;;7.60;5.50;;;13.80;75.80;;;;;;4998218;28;20038;-68
2021/09/05 01:48:56;;;;;;;5.47;4.93;;;13.90;75.70;;;;;;4997198;28;20048;-69
2021/09/05 01:51:22;;;;;;;5.15;4.65;;;13.80;75.50;;;;;;4999038;28;20034;-69
2021/09/05 01:53:48;;;;;;;5.22;4.72;;;13.80;75.40;;;;;;4997182;28;20038;-69
2021/09/05 01:56:13;;;;;;;7.85;5.15;;;13.90;75.40;;;;;;4996825;28;20049;-69
2021/09/05 01:58:39;;;;;;;6.38;4.93;;;13.80;75.30;;;;;;4995667;28;20684;-68
2021/09/05 02:01:05;;;;;;;5.88;4.85;;;13.80;75.10;;;;;;4998530;28;20531;-68
2021/09/05 02:03:30;;;;;;;5.80;5.13;;;13.80;75.10;;;;;;4997095;28;20323;-69
2021/09/05 02:05:56;;;;;;;5.93;4.72;;;13.80;75.10;;;;;;4999168;28;20389;-68
2021/09/05 02:08:22;;;;;;;6.35;5.10;;;13.80;75.00;;;;;;4999164;28;20034;-69
2021/09/05 02:10:47;;;;;;;6.63;4.63;;;13.70;75.00;;;;;;5001214;28;20113;-68
2021/09/05 02:13:13;;;;;;;5.30;4.78;;;13.70;75.10;;;;;;5000851;28;20065;-68
2021/09/05 02:15:39;;;;;;;5.53;4.80;;;13.60;75.20;;;;;;4999444;28;20142;-70
2021/09/05 02:18:05;;;;;;;6.40;5.22;;;13.60;75.30;;;;;;5003529;28;20030;-68
2021/09/05 02:20:30;;;;;;;9.20;5.18;;;13.60;75.40;;;;;;4999945;28;20627;-69
2021/09/05 02:22:56;;;;;;;5.95;5.10;;;13.60;75.30;;;;;;5001083;28;20038;-68
2021/09/05 02:25:22;;;;;;;8.10;5.43;;;13.50;75.40;;;;;;5002764;28;20044;-68
2021/09/05 02:27:47;;;;;;;5.60;5.00;;;13.40;75.50;;;;;;5003028;28;20505;-67
2021/09/05 02:30:13;;;;;;;5.20;4.70;;;13.40;75.60;;;;;;4999998;28;20037;-69
2021/09/05 02:32:39;;;;;;;6.93;4.65;;;13.40;75.70;;;;;;4999061;28;20038;-68
2021/09/05 02:35:06;;;;;;;6.40;4.93;;;13.30;75.70;;;;;;5001292;28;20096;-68
2021/09/05 02:37:32;;;;;;;6.57;5.18;;;13.40;75.80;;;;;;5003130;28;20038;-69
2021/09/05 02:39:58;;;;;;;5.50;4.80;;;13.30;75.60;;;;;;5004057;28;20042;-70
2021/09/05 02:42:24;;;;;;;5.80;4.88;;;13.30;75.60;;;;;;5000717;28;20026;-69
2021/09/05 02:44:49;;;;;;;8.32;5.13;;;13.30;75.60;;;;;;5002670;28;20535;-68
2021/09/05 02:47:15;;;;;;;6.60;4.82;;;13.30;75.60;;;;;;5002279;28;20905;-68
2021/09/05 02:49:41;;;;;;;6.90;4.90;;;13.30;75.60;;;;;;5001724;28;20038;-67
2021/09/05 02:52:09;;;;;;;5.90;4.68;;;13.30;75.60;;;;;;5002494;28;20405;-69
2021/09/05 02:54:37;;;;;;;5.78;4.80;;;13.30;75.60;;;;;;5002693;28;20073;-68
2021/09/05 02:57:03;;;;;;;8.68;4.90;;;13.20;75.80;;;;;;5001613;28;20061;-68
2021/09/05 02:59:29;;;;;;;5.35;4.68;;;13.20;75.70;;;;;;4999337;28;20106;-68
2021/09/05 03:01:54;;;;;;;5.20;4.45;;;13.20;76.00;;;;;;5000897;28;20026;-69
2021/09/05 03:04:20;;;;;;;6.57;5.30;;;13.20;75.90;;;;;;4999073;28;20026;-69
2021/09/05 03:06:46;;;;;;;6.65;5.18;;;13.10;75.80;;;;;;5001421;28;20041;-68
2021/09/05 03:09:11;;;;;;;8.95;5.15;;;13.10;75.90;;;;;;5001154;28;20057;-69
2021/09/05 03:11:37;;;;;;;7.85;4.82;;;13.10;76.10;;;;;;5001140;28;20026;-69
2021/09/05 03:14:03;;;;;;;7.25;5.50;;;13.10;76.10;;;;;;4999551;28;20619;-68
2021/09/05 03:16:28;;;;;;;7.10;5.35;;;13.00;76.30;;;;;;4999635;28;20038;-68
2021/09/05 03:18:54;;;;;;;6.47;5.53;;;13.00;76.50;;;;;;4999114;28;20038;-68
2021/09/05 03:21:19;;;;;;;6.88;5.28;;;12.90;76.70;;;;;;4997517;28;20033;-68
2021/09/05 03:23:45;;;;;;;6.55;4.65;;;12.90;77.00;;;;;;5000335;28;20065;-67
2021/09/05 03:26:11;;;;;;;7.53;5.10;;;12.90;77.20;;;;;;5000426;28;20034;-68
2021/09/05 03:28:36;;;;;;;6.78;5.57;;;12.90;77.30;;;;;;5002262;28;20475;-69
2021/09/05 03:31:02;;;;;;;7.43;5.28;;;12.90;77.70;;;;;;5002032;28;20053;-69
2021/09/05 03:33:27;;;;;;;5.63;4.93;;;12.90;77.50;;;;;;5000120;28;20042;-67
2021/09/05 03:35:53;;;;;;;5.85;4.65;;;12.90;77.50;;;;;;4999773;28;20046;-67
2021/09/05 03:38:19;;;;;;;4.72;4.18;;;12.90;77.40;;;;;;5006036;28;20035;-68
2021/09/05 03:40:44;;;;;;;10.02;5.30;;;12.90;77.20;;;;;;4999818;28;20509;-69
2021/09/05 03:43:11;;;;;;;5.40;4.90;;;13.00;77.10;;;;;;5004369;28;20045;-68
2021/09/05 03:45:37;;;;;;;6.13;4.57;;;13.00;77.00;;;;;;5000175;28;20042;-68
2021/09/05 03:48:03;;;;;;;5.95;4.95;;;12.90;76.90;;;;;;5001568;28;20031;-68
2021/09/05 03:50:29;;;;;;;7.60;5.18;;;13.00;76.80;;;;;;5002659;28;20046;-69
2021/09/05 03:52:54;;;;;;;5.18;4.68;;;13.00;76.80;;;;;;4999127;28;20037;-68
2021/09/05 03:55:20;;;;;;;6.15;4.63;;;13.00;76.80;;;;;;4998846;28;20034;-68
2021/09/05 03:57:45;;;;;;;5.60;5.10;;;12.90;76.60;;;;;;4999992;28;20527;-69
2021/09/05 04:00:12;;;;;;;6.40;5.18;;;12.90;76.50;;;;;;5001732;28;20041;-69
2021/09/05 04:02:37;;;;;;;6.97;4.93;;;12.90;76.70;;;;;;4999414;28;20034;-68
2021/09/05 04:05:03;;;;;;;5.07;4.57;;;12.90;76.70;;;;;;5002130;28;20092;-68
2021/09/05 04:07:31;;;;;;;6.53;5.03;;;12.90;76.80;;;;;;5000985;28;21807;-68
2021/09/05 04:10:09;;;;;;;5.90;5.03;;;12.90;77.00;;;;;;4998756;28;20034;-67
2021/09/05 04:12:36;;;;;;;7.80;4.97;;;12.90;77.20;;;;;;4998027;28;20109;-67
2021/09/05 04:15:01;;;;;;;6.28;4.70;;;12.90;77.10;;;;;;5000061;28;20037;-67
2021/09/05 04:17:27;;;;;;;6.00;4.78;;;12.90;77.10;;;;;;5002425;28;20034;-68
2021/09/05 04:19:53;;;;;;;5.97;4.47;;;12.90;77.10;;;;;;4998412;28;20413;-68
2021/09/05 04:22:18;;;;;;;9.32;4.72;;;12.90;77.00;;;;;;4998941;28;20685;-68
2021/09/05 04:24:44;;;;;;;6.00;4.78;;;13.00;76.70;;;;;;4999506;28;20037;-68
2021/09/05 04:27:10;;;;;;;7.47;4.88;;;13.00;76.50;;;;;;5000280;28;20164;-68
2021/09/05 04:29:35;;;;;;;5.65;4.40;;;13.00;76.30;;;;;;5000796;28;20037;-68
2021/09/05 04:32:01;;;;;;;6.07;4.63;;;13.00;76.30;;;;;;4998770;28;20057;-68
2021/09/05 04:34:27;;;;;;;5.30;4.75;;;13.00;76.20;;;;;;4995774;28;20100;-69
2021/09/05 04:36:52;;;;;;;5.55;4.88;;;13.00;76.30;;;;;;4999273;28;20542;-68
2021/09/05 04:39:18;;;;;;;6.10;4.47;;;12.90;76.30;;;;;;4997973;28;20029;-68
2021/09/05 04:41:45;;;;;;;6.15;5.15;;;12.90;76.20;;;;;;5000409;28;20107;-69
2021/09/05 04:44:11;;;;;;;5.85;4.43;;;12.80;76.10;;;;;;5000776;28;20032;-69
2021/09/05 04:46:37;;;;;;;5.45;4.60;;;12.90;76.20;;;;;;4999535;28;20404;-68
2021/09/05 04:49:02;;;;;;;6.25;4.50;;;12.80;76.10;;;;;;4998439;28;20034;-68
2021/09/05 04:51:28;;;;;;;4.82;4.22;;;12.80;76.30;;;;;;4997892;28;20568;-68
2021/09/05 04:53:53;;;;;;;7.15;4.72;;;12.70;76.30;;;;;;5000566;28;20556;-69
2021/09/05 04:56:19;;;;;;;6.18;4.80;;;12.80;76.50;;;;;;4999255;28;20056;-68
2021/09/05 04:58:45;;;;;;;5.65;4.63;;;12.70;76.30;;;;;;5005299;28;20039;-68
2021/09/05 05:01:11;;;;;;;5.45;4.60;;;12.70;76.40;;;;;;4999535;28;20069;-69
2021/09/05 05:03:37;;;;;;;6.63;4.78;;;12.70;76.80;;;;;;4999024;28;20066;-68
2021/09/05 05:06:06;;;;;;;8.43;5.10;;;12.70;77.10;;;;;;4997638;28;20034;-66
2021/09/05 05:08:33;;;;;;;6.80;5.18;;;12.70;77.20;;;;;;4997436;28;20532;-68
2021/09/05 05:10:59;;;;;;;7.50;5.53;;;12.70;77.00;;;;;;4996581;28;20100;-69
2021/09/05 05:13:25;;;;;;;8.65;5.38;;;12.80;77.00;;;;;;4998746;28;20030;-69
2021/09/05 05:15:51;;;;;;;8.30;4.95;;;12.70;77.10;;;;;;4996856;28;20058;-68
2021/09/05 05:18:16;;;;;;;6.35;5.47;;;12.70;77.20;;;;;;4996962;28;20120;-69
2021/09/05 05:20:42;;;;;;;8.20;5.97;;;12.70;77.40;;;;;;4994987;28;20120;-68
2021/09/05 05:23:08;;;;;;;7.90;6.20;;;12.70;77.50;;;;;;4997237;28;20047;-66
2021/09/05 05:25:33;;;;;;;7.55;5.88;;;12.70;77.60;;;;;;4998609;28;20165;-67
2021/09/05 05:27:59;;;;;;;9.50;7.13;;;12.70;77.80;;;;;;4996000;28;20985;-70
2021/09/05 05:30:25;;;;;;;12.40;7.15;;;12.70;77.90;;;;;;4994399;28;20038;-69
2021/09/05 05:32:50;;;;;;;7.57;6.18;;;12.80;77.90;;;;;;4995055;28;20042;-69
2021/09/05 05:35:16;;;;;;;7.38;6.00;;;12.80;77.90;;;;;;4997149;28;20362;-69
2021/09/05 05:37:42;;;;;;;10.27;7.28;;;12.80;78.00;;;;;;4996768;28;20037;-68
2021/09/05 05:40:08;;;;;;;6.90;6.00;;;12.80;78.10;;;;;;4996900;28;20496;-67
2021/09/05 05:42:34;;;;;;;6.72;5.93;;;12.90;78.20;;;;;;4991252;28;20037;-68
2021/09/05 05:45:00;;;;;;;7.97;6.32;;;12.90;78.10;;;;;;4996756;28;20042;-67
2021/09/05 05:47:28;;;;;;;10.23;6.90;;;13.00;78.20;;;;;;5000825;28;20038;-68
2021/09/05 05:49:54;;;;;;;7.15;6.28;;;13.00;78.30;;;;;;4999998;28;20635;-66
2021/09/05 05:52:19;;;;;;;9.95;6.78;;;13.10;78.40;;;;;;4998102;28;20057;-69
2021/09/05 05:54:45;;;;;;;9.43;8.32;;;13.10;78.30;;;;;;4999433;28;20815;-68
2021/09/05 05:57:11;;;;;;;11.38;9.18;;;13.20;78.40;;;;;;4998912;28;20037;-69
2021/09/05 05:59:36;;;;;;;10.77;8.43;;;13.20;78.40;;;;;;5001686;28;20945;-69
2021/09/05 06:02:02;;;;;;;7.25;6.47;;;13.30;78.40;;;;;;4994425;28;20520;-70
2021/09/05 06:04:27;;;;;;;8.85;6.40;;;13.30;78.40;;;;;;4999210;28;20038;-68
2021/09/05 06:06:53;;;;;;;8.02;5.78;;;13.40;78.30;;;;;;4997982;28;20433;-70
2021/09/05 06:09:19;;;;;;;7.20;5.90;;;13.40;78.30;;;;;;4999945;28;20137;-69
2021/09/05 06:11:45;;;;;;;6.75;6.05;;;13.50;78.40;;;;;;5000140;28;20058;-70
2021/09/05 06:14:11;;;;;;;7.88;6.32;;;13.50;78.40;;;;;;4997943;28;20132;-67
2021/09/05 06:16:37;;;;;;;8.68;6.18;;;13.60;78.60;;;;;;4998548;28;20069;-68
2021/09/05 06:19:04;;;;;;;7.63;5.95;;;13.70;78.70;;;;;;4998769;28;20145;-70
2021/09/05 06:21:29;;;;;;;6.97;6.10;;;13.70;78.70;;;;;;4998403;28;20026;-69
2021/09/05 06:23:55;;;;;;;9.48;6.63;;;13.80;78.70;;;;;;4997008;28;20041;-68
2021/09/05 06:26:21;;;;;;;9.52;7.13;;;13.80;78.80;;;;;;4999125;28;20501;-68
2021/09/05 06:28:46;;;;;;;8.00;6.22;;;13.90;79.20;;;;;;4997032;28;20125;-67
2021/09/05 06:31:12;;;;;;;11.80;7.70;;;13.90;79.10;;;;;;4998771;28;20038;-67
2021/09/05 06:33:38;;;;;;;9.27;7.57;;;14.00;79.10;;;;;;4998489;28;20034;-68
2021/09/05 06:36:04;;;;;;;11.80;7.85;;;14.00;79.30;;;;;;4998634;28;20510;-67
2021/09/05 06:38:30;;;;;;;10.85;7.45;;;14.10;79.40;;;;;;4997190;28;20657;-67
2021/09/05 06:40:55;;;;;;;12.13;8.07;;;14.10;79.30;;;;;;5003915;28;20056;-68
2021/09/05 06:43:21;;;;;;;9.48;7.78;;;14.20;79.30;;;;;;5002086;28;20382;-69
2021/09/05 06:45:46;;;;;;;10.35;8.07;;;14.30;79.40;;;;;;4997556;28;20119;-69
2021/09/05 06:48:13;;;;;;;11.60;8.40;;;14.30;79.40;;;;;;5000549;28;20030;-69
2021/09/05 06:50:38;;;;;;;10.52;8.35;;;14.40;79.60;;;;;;4997070;28;20099;-69
2021/09/05 06:53:04;;;;;;;10.32;8.35;;;14.40;79.80;;;;;;4997607;28;20441;-68
2021/09/05 06:55:30;;;;;;;10.85;8.35;;;14.50;79.90;;;;;;4997061;28;20130;-69
2021/09/05 06:57:55;;;;;;;12.80;8.80;;;14.60;81.00;;;;;;4998647;28;20042;-69
2021/09/05 07:00:21;;;;;;;12.27;8.98;;;14.60;80.10;;;;;;4999091;28;20321;-69
2021/09/05 07:02:46;;;;;;;10.50;7.68;;;14.70;80.30;;;;;;4997054;28;20037;-69
2021/09/05 07:05:12;;;;;;;11.27;8.50;;;14.70;80.30;;;;;;4999857;28;20063;-68
2021/09/05 07:07:38;;;;;;;11.60;8.88;;;14.80;80.70;;;;;;4997763;28;20105;-67
2021/09/05 07:10:04;;;;;;;10.75;8.63;;;14.80;81.00;;;;;;4997530;28;20519;-69
2021/09/05 07:12:29;;;;;;;11.73;8.80;;;14.90;81.00;;;;;;4995864;28;20076;-68
2021/09/05 07:14:55;;;;;;;11.70;9.30;;;15.00;81.00;;;;;;4998845;28;20116;-69
2021/09/05 07:17:21;;;;;;;11.55;8.85;;;15.00;81.00;;;;;;4998598;28;20066;-70
2021/09/05 07:19:47;;;;;;;13.43;10.10;;;15.10;81.00;;;;;;4997698;28;20034;-68
2021/09/05 07:22:12;;;;;;;11.20;8.65;;;15.20;81.20;;;;;;4996645;28;20511;-70
2021/09/05 07:24:38;;;;;;;14.18;9.10;;;15.20;81.00;;;;;;4998277;28;20506;-69
2021/09/05 07:27:04;;;;;;;13.05;9.60;;;15.30;80.90;;;;;;5001255;28;20514;-69
2021/09/05 07:29:29;;;;;;;13.70;9.85;;;15.40;80.90;;;;;;4998883;28;20035;-69
2021/09/05 07:31:55;;;;;;;14.80;10.73;;;15.50;80.90;;;;;;5002574;28;20034;-69
2021/09/05 07:34:21;;;;;;;18.00;11.25;;;15.60;80.80;;;;;;4999420;28;20075;-68
2021/09/05 07:36:46;;;;;;;12.27;10.38;;;15.60;80.80;;;;;;4999989;28;20030;-70
2021/09/05 07:39:12;;;;;;;13.20;10.73;;;15.80;80.80;;;;;;4999960;28;20038;-70
2021/09/05 07:41:38;;;;;;;11.60;9.50;;;15.80;80.80;;;;;;5001482;28;20031;-69
2021/09/05 07:44:04;;;;;;;13.48;10.13;;;15.90;80.60;;;;;;5000892;28;20127;-68
2021/09/05 07:46:30;;;;;;;15.70;10.60;;;16.00;80.60;;;;;;5000680;28;20081;-68
2021/09/05 07:48:55;;;;;;;18.42;12.57;;;16.10;80.50;;;;;;5000531;28;20109;-69
2021/09/05 07:51:24;;;;;;;14.60;12.02;;;16.20;80.60;;;;;;4997680;28;20050;-69
2021/09/05 07:53:54;;;;;;;16.25;12.15;;;16.20;80.30;;;;;;4997727;28;20230;-70
2021/09/05 07:56:20;;;;;;;13.75;11.30;;;16.40;80.40;;;;;;4998229;28;20049;-69
2021/09/05 07:58:47;;;;;;;13.38;11.35;;;16.50;80.30;;;;;;4999006;28;20092;-69
2021/09/05 08:01:13;;;;;;;14.27;10.60;;;16.60;80.30;;;;;;4995943;28;20045;-68
2021/09/05 08:03:39;;;;;;;13.93;10.98;;;16.70;80.30;;;;;;4998884;28;20503;-68
2021/09/05 08:06:06;;;;;;;14.60;10.88;;;16.80;80.00;;;;;;5000169;28;20038;-69
2021/09/05 08:08:35;;;;;;;14.02;10.60;;;16.90;79.80;;;;;;5001157;28;20040;-70
2021/09/05 08:11:01;;;;;;;14.75;11.30;;;17.00;79.60;;;;;;4995973;28;20408;-69
2021/09/05 08:13:27;;;;;;;13.18;10.43;;;17.10;79.40;;;;;;4996138;28;20475;-68
2021/09/05 08:15:52;;;;;;;15.13;10.85;;;17.20;79.40;;;;;;4998501;28;20520;-68
2021/09/05 08:18:18;;;;;;;12.88;10.75;;;17.30;79.30;;;;;;4999662;28;20108;-68
2021/09/05 08:20:44;;;;;;;13.60;10.88;;;17.40;79.30;;;;;;4996881;28;20059;-68
2021/09/05 08:23:09;;;;;;;11.88;10.02;;;17.50;79.10;;;;;;4997144;28;20030;-69
2021/09/05 08:25:35;;;;;;;14.00;11.05;;;17.60;78.90;;;;;;4996966;28;20041;-69
2021/09/05 08:28:00;;;;;;;12.68;10.57;;;17.70;78.70;;;;;;4997834;28;20036;-68
2021/09/05 08:30:26;;;;;;;10.93;9.38;;;17.80;78.60;;;;;;4998339;28;20034;-68
2021/09/05 08:32:52;;;;;;;14.80;11.30;;;17.90;78.40;;;;;;4999070;28;20116;-69
2021/09/05 08:35:17;;;;;;;12.77;9.88;;;18.00;78.20;;;;;;5000073;28;20510;-69
2021/09/05 08:37:43;;;;;;;11.27;8.15;;;18.10;78.10;;;;;;4999917;28;20512;-68
2021/09/05 08:40:09;;;;;;;11.27;8.90;;;18.20;77.90;;;;;;5001001;28;20071;-69
2021/09/05 08:42:35;;;;;;;9.73;8.73;;;18.30;77.50;;;;;;5000109;28;20119;-69
2021/09/05 08:45:05;;;;;;;11.82;8.55;;;18.40;77.50;;;;;;5004057;28;20041;-69
2021/09/05 08:47:34;;;;;;;10.13;8.23;;;18.50;77.50;;;;;;5001802;28;20411;-69
2021/09/05 08:50:02;;;;;;;12.98;8.40;;;18.60;77.20;;;;;;5001708;28;20524;-69
2021/09/05 08:52:28;;;;;;;11.25;8.55;;;18.70;77.00;;;;;;5001401;28;20036;-69
2021/09/05 08:54:53;;;;;;;11.82;9.13;;;18.80;76.90;;;;;;5005795;28;20038;-69
2021/09/05 08:57:19;;;;;;;10.07;8.77;;;18.90;76.40;;;;;;5002205;28;20034;-68
2021/09/05 08:59:44;;;;;;;9.70;8.65;;;19.00;75.90;;;;;;5002541;28;20046;-70
2021/09/05 09:02:10;;;;;;;10.10;7.82;;;19.10;75.90;;;;;;5002852;28;20373;-69
2021/09/05 09:04:41;;;;;;;8.20;7.32;;;19.20;75.70;;;;;;5000499;28;20088;-69
2021/09/05 09:07:09;;;;;;;8.85;7.43;;;19.30;75.30;;;;;;5001411;28;20077;-70
2021/09/05 09:09:35;;;;;;;9.13;7.68;;;19.40;74.90;;;;;;5001957;28;20057;-69
2021/09/05 09:12:00;;;;;;;10.75;7.47;;;19.60;74.70;;;;;;4999748;28;20042;-69
2021/09/05 09:15:02;;;;;;;11.55;7.60;;;19.70;74.60;;;;;;5000235;28;20025;-69
2021/09/05 09:17:37;;;;;;;8.25;7.40;;;19.80;74.50;;;;;;4926077;29;20028;-69
2021/09/05 09:20:02;;;;;;;9.10;8.20;;;19.90;73.30;;;;;;4986222;28;20036;-69
2021/09/05 09:22:28;;;;;;;8.05;7.25;;;19.90;73.10;;;;;;5002162;28;20553;-69
2021/09/05 09:24:54;;;;;;;7.45;6.70;;;20.00;73.00;;;;;;4999911;28;20034;-69
2021/09/05 09:27:19;;;;;;;6.78;6.07;;;20.20;72.80;;;;;;5003071;28;20404;-69
2021/09/05 09:29:45;;;;;;;6.97;5.82;;;20.20;72.50;;;;;;5005721;28;20160;-69
2021/09/05 09:32:18;;;;;;;7.90;6.28;;;20.30;71.80;;;;;;5000479;28;20524;-69
2021/09/05 09:34:48;;;;;;;7.05;5.78;;;20.40;70.70;;;;;;5000752;28;20048;-68
2021/09/05 09:37:17;;;;;;;8.70;6.05;;;20.50;71.30;;;;;;5001955;28;20045;-69
2021/09/05 09:39:56;;;;;;;5.85;5.20;;;20.70;71.10;;;;;;5002925;28;20070;-70
2021/09/05 09:42:38;;;;;;;6.22;5.20;;;20.80;69.90;;;;;;4998359;28;20058;-69
2021/09/05 09:45:13;;;;;;;6.95;5.57;;;20.90;69.60;;;;;;4999871;28;20089;-69
2021/09/05 09:47:44;;;;;;;6.22;5.40;;;21.00;68.80;;;;;;5000929;28;20500;-70
2021/09/05 09:50:11;;;;;;;5.57;5.07;;;21.00;68.90;;;;;;5002244;28;20591;-68
2021/09/05 09:52:36;;;;;;;5.45;4.95;;;21.10;69.00;;;;;;5000720;28;20038;-69
2021/09/05 09:55:04;;;;;;;6.65;5.22;;;21.30;68.90;;;;;;5002879;28;20049;-69
2021/09/05 09:57:30;;;;;;;5.60;5.10;;;21.30;68.30;;;;;;4998677;28;20523;-69
2021/09/05 09:59:55;;;;;;;5.80;5.20;;;21.40;67.80;;;;;;5000723;28;20038;-69
2021/09/05 10:02:25;;;;;;;6.13;4.97;;;21.50;67.90;;;;;;4998623;28;20117;-70
2021/09/05 10:04:52;;;;;;;5.88;4.88;;;21.60;67.20;;;;;;4999257;28;20030;-70
2021/09/05 10:07:21;;;;;;;5.35;4.85;;;21.80;65.90;;;;;;4999603;28;20033;-69
2021/09/05 10:09:48;;;;;;;5.93;4.68;;;21.90;65.70;;;;;;4999414;28;20048;-69
2021/09/05 10:12:18;;;;;;;4.93;4.38;;;22.00;65.30;;;;;;4999543;28;20432;-70
2021/09/05 10:14:53;;;;;;;6.25;4.18;;;22.10;64.00;;;;;;4996813;28;20049;-69
2021/09/05 10:17:22;;;;;;;5.63;4.13;;;22.10;64.50;;;;;;5001157;28;20037;-69
2021/09/05 10:19:49;;;;;;;5.28;4.53;;;22.30;63.40;;;;;;5000303;28;20108;-70
2021/09/05 10:22:31;;;;;;;14.45;5.00;;;22.30;63.20;;;;;;4998061;28;20543;-69
2021/09/05 10:25:00;;;;;;;5.72;4.55;;;22.40;62.00;;;;;;5013452;28;20121;-70
2021/09/05 10:27:34;;;;;;;6.15;4.38;;;22.50;61.40;;;;;;5003309;28;20027;-69
2021/09/05 10:30:08;;;;;;;4.40;3.85;;;22.50;60.80;;;;;;5014643;28;20117;-69
2021/09/05 10:32:49;;;;;;;3.50;3.20;;;22.60;61.10;;;;;;5002220;28;20508;-70
2021/09/05 10:35:30;;;;;;;3.55;3.22;;;22.70;59.70;;;;;;5005675;28;20068;-70
2021/09/05 10:38:08;;;;;;;5.57;3.50;;;22.80;59.00;;;;;;5004027;28;20441;-69
2021/09/05 10:40:51;;;;;;;3.80;3.50;;;22.80;59.40;;;;;;5001688;28;20037;-69
2021/09/05 10:43:19;;;;;;;3.47;3.00;;;22.90;59.00;;;;;;5004706;28;20034;-69
2021/09/05 10:45:50;;;;;;;4.55;3.65;;;22.90;59.10;;;;;;5004712;28;20026;-69
2021/09/05 10:48:35;;;;;;;3.33;3.03;;;23.00;57.90;;;;;;5002786;28;20587;-69
2021/09/05 10:51:12;;;;;;;3.22;2.92;;;23.10;56.30;;;;;;5001467;28;20707;-69
2021/09/05 10:53:54;;;;;;;3.45;3.15;;;23.10;57.50;;;;;;5003435;28;20121;-69
2021/09/05 10:56:24;;;;;;;3.60;3.30;;;23.20;57.00;;;;;;5004598;28;20091;-69
2021/09/05 10:58:59;;;;;;;3.28;3.00;;;23.20;56.90;;;;;;5002778;28;20543;-70
2021/09/05 11:01:37;;;;;;;3.45;3.15;;;23.30;56.50;;;;;;5003748;28;20045;-69
2021/09/05 11:04:12;;;;;;;3.53;3.10;;;23.40;55.70;;;;;;5002745;28;20026;-69
2021/09/05 11:06:37;;;;;;;3.97;3.65;;;23.40;56.00;;;;;;5003451;28;20424;-69
2021/09/05 11:09:22;;;;;;;4.03;3.45;;;23.50;56.90;;;;;;5003272;28;20124;-69
2021/09/05 11:12:03;;;;;;;5.90;3.55;;;23.60;54.90;;;;;;5001671;28;20516;-69
2021/09/05 11:14:37;;;;;;;4.47;3.45;;;23.60;55.40;;;;;;5001091;28;20042;-70
2021/09/05 11:17:12;;;;;;;4.95;3.10;;;23.60;54.40;;;;;;5003136;28;20427;-69
2021/09/05 11:19:48;;;;;;;3.85;3.53;;;23.70;54.50;;;;;;5002023;28;20030;-69
2021/09/05 11:22:37;;;;;;;3.55;3.25;;;23.70;52.10;;;;;;5003841;28;20851;-70
2021/09/05 11:25:07;;;;;;;3.58;3.28;;;23.80;53.60;;;;;;5001384;28;20053;-69
2021/09/05 11:27:33;;;;;;;3.40;3.05;;;23.80;54.90;;;;;;5002785;28;20408;-70
2021/09/05 11:30:08;;;;;;;3.25;2.97;;;23.80;55.10;;;;;;5004073;28;20030;-70
2021/09/05 11:32:34;;;;;;;;;;;23.90;53.80;;;;;;5002528;28;20120;-69
2021/09/05 11:35:00;;;;;;;2.90;2.70;;;24.00;56.00;;;;;;5003849;28;19971;-70
2021/09/05 11:37:30;;;;;;;2.78;2.58;;;24.00;54.90;;;;;;5002409;28;20027;-69
2021/09/05 11:40:02;;;;;;;3.35;3.00;;;24.10;53.90;;;;;;5002936;28;20046;-70
2021/09/05 11:42:28;;;;;;;3.50;3.17;;;24.10;54.00;;;;;;5002668;28;20030;-70
2021/09/05 11:45:01;;;;;;;3.10;2.58;;;24.10;53.70;;;;;;5002951;28;20061;-70
2021/09/05 11:47:26;;;;;;;4.13;2.70;;;24.10;52.30;;;;;;5003496;28;20096;-69
2021/09/05 11:49:54;;;;;;;2.63;2.42;;;24.20;53.10;;;;;;5002408;28;20034;-70
2021/09/05 11:52:22;;;;;;;4.15;2.97;;;24.20;52.40;;;;;;5003425;28;20030;-69
2021/09/05 11:55:10;;;;;;;3.28;2.97;;;24.30;52.30;;;;;;5003057;28;20042;-70
2021/09/05 11:57:49;;;;;;;4.63;3.20;;;24.30;50.80;;;;;;5000082;28;20036;-69
2021/09/05 12:00:43;;;;;;;4.13;2.92;;;24.30;51.80;;;;;;5002053;28;20066;-69
2021/09/05 12:03:14;;;;;;;3.20;2.90;;;24.30;52.00;;;;;;5003464;28;20030;-69
2021/09/05 12:05:41;;;;;;;3.47;2.70;;;24.40;51.80;;;;;;5002065;28;20527;-69
2021/09/05 12:08:07;;;;;;;3.78;2.95;;;24.40;51.60;;;;;;5002051;28;20048;-69
2021/09/05 12:10:34;;;;;;;3.15;2.80;;;24.40;51.80;;;;;;5000083;28;20037;-69
2021/09/05 12:13:10;;;;;;;3.13;2.65;;;24.40;51.40;;;;;;5000643;28;20045;-69
2021/09/05 12:15:44;;;;;;;2.83;2.63;;;24.40;51.10;;;;;;5000555;28;20038;-70
2021/09/05 12:18:21;;;;;;;2.55;2.35;;;24.40;51.40;;;;;;5001743;28;20034;-69
2021/09/05 12:20:51;;;;;;;3.65;2.60;;;24.50;50.30;;;;;;5000903;28;20460;-69
2021/09/05 12:23:18;;;;;;;4.28;2.58;;;24.50;50.90;;;;;;5000055;28;20061;-69
2021/09/05 12:25:44;;;;;;;3.80;2.70;;;24.60;51.00;;;;;;5000729;28;20264;-69
2021/09/05 12:28:11;;;;;;;4.72;2.58;;;24.60;50.70;;;;;;5001570;28;20040;-70
2021/09/05 12:30:37;;;;;;;2.88;2.60;;;24.70;50.70;;;;;;5001498;28;20057;-69
2021/09/05 12:33:20;;;;;;;2.90;2.70;;;24.70;50.50;;;;;;5000765;28;20100;-70
2021/09/05 12:35:46;;;;;;;3.08;2.78;;;24.80;48.50;;;;;;5001165;28;20457;-69
2021/09/05 12:38:33;;;;;;;3.50;2.40;;;24.80;49.60;;;;;;5000224;28;20512;-70
2021/09/05 12:41:14;;;;;;;2.45;2.25;;;24.80;49.20;;;;;;5000145;28;20037;-69
2021/09/05 12:43:59;;;;;;;3.00;2.70;;;24.90;48.80;;;;;;5000423;28;20042;-69
2021/09/05 12:46:37;;;;;;;3.35;2.60;;;24.90;47.00;;;;;;5001332;28;20050;-70